Time;durP1;ratioP1;P1;durP2;ratioP2;P2;SDS_P1;SDS_P2;PMS_P1;PMS_P2;Temp;Humidity;BMP_temperature;BMP_pressure;BME280_temperature;BME280_humidity;BME280_pressure;Samples;Min_cycle;Max_cycle;Signal;HPM_P1;HPM_P2
2023/10/05 00:01:03;;;;;;;19.33;12.37;;;;;;;;;;10454994;28;20017;-76
2023/10/05 00:06:13;;;;;;;23.65;9.85;;;;;;;;;;10483830;28;20031;-75
2023/10/05 00:11:23;;;;;;;22.52;10.85;;;;;;;;;;10484101;28;20214;-78
2023/10/05 00:16:23;;;;;;;25.58;10.88;;;;;;;;;;10490376;28;20021;-74
2023/10/05 00:21:24;;;;;;;18.77;10.10;;;;;;;;;;10490865;28;20027;-80
2023/10/05 00:26:29;;;;;;;16.15;9.43;;;;;;;;;;10491328;28;20017;-80
2023/10/05 00:31:30;;;;;;;19.17;10.32;;;;;;;;;;10490370;28;20086;-74
2023/10/05 00:36:34;;;;;;;22.45;11.13;;;;;;;;;;10490462;28;20048;-80
2023/10/05 00:41:37;;;;;;;19.70;10.73;;;;;;;;;;10492211;28;20021;-77
2023/10/05 00:46:38;;;;;;;20.98;10.65;;;;;;;;;;10489759;28;20024;-75
2023/10/05 00:51:40;;;;;;;19.35;10.35;;;;;;;;;;10490757;28;20017;-83
2023/10/05 00:56:41;;;;;;;18.40;10.85;;;;;;;;;;10489444;28;20052;-76
2023/10/05 01:06:56;;;;;;;22.42;10.18;;;;;;;;;;10490213;28;20027;-77
2023/10/05 01:12:17;;;;;;;16.70;10.13;;;;;;;;;;10505714;28;20099;-75
2023/10/05 01:17:21;;;;;;;17.92;9.82;;;;;;;;;;10488022;28;20476;-76
2023/10/05 01:22:23;;;;;;;15.90;9.75;;;;;;;;;;10487346;28;20008;-77
2023/10/05 01:27:29;;;;;;;14.68;10.05;;;;;;;;;;10489511;28;20032;-81
2023/10/05 01:32:29;;;;;;;15.07;9.35;;;;;;;;;;10488729;28;20048;-74
2023/10/05 01:37:33;;;;;;;15.82;8.77;;;;;;;;;;10488136;28;20025;-76
2023/10/05 01:42:33;;;;;;;17.85;9.57;;;;;;;;;;10488881;28;20039;-74
2023/10/05 01:47:33;;;;;;;18.33;10.02;;;;;;;;;;10488509;28;20035;-76
2023/10/05 01:52:35;;;;;;;18.10;10.73;;;;;;;;;;10484287;28;20025;-81
2023/10/05 01:57:37;;;;;;;18.48;9.35;;;;;;;;;;10488357;28;20113;-79
2023/10/05 02:02:38;;;;;;;17.90;9.07;;;;;;;;;;10452865;28;20031;-75
2023/10/05 02:07:38;;;;;;;18.10;9.32;;;;;;;;;;10455066;28;20021;-76
2023/10/05 02:12:39;;;;;;;19.33;10.50;;;;;;;;;;10480907;28;20028;-75
2023/10/05 02:17:42;;;;;;;31.98;9.68;;;;;;;;;;10483894;28;20024;-77
2023/10/05 02:22:47;;;;;;;24.20;10.15;;;;;;;;;;10486462;28;20021;-77
2023/10/05 02:27:48;;;;;;;17.08;9.80;;;;;;;;;;10480302;28;20013;-76
2023/10/05 02:32:48;;;;;;;17.08;10.02;;;;;;;;;;10486726;28;20040;-78
2023/10/05 02:37:51;;;;;;;17.43;9.20;;;;;;;;;;10460333;28;20412;-78
2023/10/05 02:42:54;;;;;;;18.90;10.27;;;;;;;;;;10474779;28;20263;-76
2023/10/05 02:47:54;;;;;;;19.63;10.20;;;;;;;;;;10470073;28;20044;-76
2023/10/05 02:52:55;;;;;;;19.52;9.80;;;;;;;;;;10465782;28;20028;-78
2023/10/05 02:57:55;;;;;;;25.58;10.15;;;;;;;;;;10462890;28;20025;-80
2023/10/05 03:02:55;;;;;;;20.17;9.70;;;;;;;;;;10496163;28;20020;-78
2023/10/05 03:07:56;;;;;;;21.42;9.77;;;;;;;;;;10485564;28;20021;-80
2023/10/05 03:12:58;;;;;;;20.33;9.73;;;;;;;;;;10486083;28;20396;-77
2023/10/05 03:17:58;;;;;;;23.02;10.80;;;;;;;;;;10484688;28;20048;-78
2023/10/05 03:22:59;;;;;;;26.25;11.35;;;;;;;;;;10499925;28;20125;-80
2023/10/05 03:28:01;;;;;;;23.38;9.93;;;;;;;;;;10482396;28;20013;-83
2023/10/05 03:33:04;;;;;;;19.23;10.77;;;;;;;;;;10481515;28;20597;-84
2023/10/05 03:38:08;;;;;;;18.15;9.13;;;;;;;;;;10484859;28;20029;-84
2023/10/05 03:43:10;;;;;;;17.67;9.50;;;;;;;;;;10484296;28;20085;-80
2023/10/05 03:48:11;;;;;;;19.63;10.20;;;;;;;;;;10484720;28;20067;-83
2023/10/05 03:53:15;;;;;;;24.52;10.40;;;;;;;;;;10475174;28;20454;-85
2023/10/05 03:58:16;;;;;;;22.45;9.25;;;;;;;;;;10485607;28;20077;-80
2023/10/05 04:03:19;;;;;;;25.20;9.93;;;;;;;;;;10482934;28;20465;-82
2023/10/05 04:08:20;;;;;;;20.33;10.18;;;;;;;;;;10483803;28;20037;-79
2023/10/05 04:13:22;;;;;;;34.55;12.35;;;;;;;;;;10479659;28;20441;-82
2023/10/05 04:18:24;;;;;;;27.17;9.52;;;;;;;;;;10495739;28;20165;-88
2023/10/05 04:23:28;;;;;;;21.20;10.35;;;;;;;;;;10492517;28;20485;-81
2023/10/05 04:28:34;;;;;;;30.30;11.38;;;;;;;;;;10497292;28;20487;-85
2023/10/05 04:33:35;;;;;;;28.73;12.40;;;;;;;;;;10494987;28;20048;-88
2023/10/05 04:38:36;;;;;;;24.52;11.68;;;;;;;;;;10474754;28;20036;-89
2023/10/05 04:43:38;;;;;;;24.37;11.87;;;;;;;;;;10494087;28;20089;-86
2023/10/05 04:48:55;;;;;;;24.63;11.15;;;;;;;;;;10489949;28;20287;-82
2023/10/05 04:53:58;;;;;;;28.45;11.48;;;;;;;;;;10488024;28;20025;-77
2023/10/05 05:09:41;;;;;;;499.75;457.95;;;;;;;;;;10491309;28;20441;-85
2023/10/05 05:14:44;;;;;;;27.00;11.18;;;;;;;;;;10480197;28;20447;-81
2023/10/05 05:19:46;;;;;;;24.60;10.80;;;;;;;;;;10478767;28;20025;-82
2023/10/05 05:24:47;;;;;;;21.77;10.43;;;;;;;;;;10491360;28;20050;-86
2023/10/05 05:29:48;;;;;;;29.38;11.07;;;;;;;;;;10497284;28;20096;-85
2023/10/05 05:34:51;;;;;;;30.60;11.10;;;;;;;;;;10502429;28;20056;-86
2023/10/05 05:39:53;;;;;;;17.05;9.43;;;;;;;;;;10491440;28;20028;-80
2023/10/05 05:44:53;;;;;;;20.17;10.85;;;;;;;;;;10498676;28;20412;-77
2023/10/05 05:49:53;;;;;;;23.40;9.83;;;;;;;;;;10492482;28;20035;-79
2023/10/05 05:54:54;;;;;;;21.45;10.75;;;;;;;;;;10491130;28;20351;-83
2023/10/05 05:59:54;;;;;;;19.77;9.55;;;;;;;;;;10492323;28;20424;-88
2023/10/05 06:04:55;;;;;;;20.13;9.43;;;;;;;;;;10492434;28;20111;-79
2023/10/05 06:09:57;;;;;;;30.25;9.05;;;;;;;;;;10486923;28;20514;-79
2023/10/05 06:14:57;;;;;;;22.92;7.63;;;;;;;;;;10489927;28;20024;-82
2023/10/05 06:19:57;;;;;;;16.87;7.83;;;;;;;;;;10490237;28;20025;-79
2023/10/05 06:24:58;;;;;;;18.48;7.15;;;;;;;;;;10487497;28;20127;-80
2023/10/05 06:30:00;;;;;;;13.57;8.32;;;;;;;;;;10491630;28;20028;-83
2023/10/05 06:35:00;;;;;;;19.60;7.15;;;;;;;;;;10490465;28;20157;-83
2023/10/05 06:40:01;;;;;;;14.27;4.83;;;;;;;;;;10474344;28;20131;-84
2023/10/05 06:45:07;;;;;;;17.50;6.15;;;;;;;;;;10469781;28;20033;-83
2023/10/05 06:50:08;;;;;;;11.43;5.15;;;;;;;;;;10468277;28;20496;-81
2023/10/05 06:55:09;;;;;;;22.80;7.60;;;;;;;;;;10497190;28;20025;-84
2023/10/05 07:00:20;;;;;;;40.50;35.53;;;;;;;;;;10509604;28;20021;-79
2023/10/05 07:05:20;;;;;;;16.20;5.57;;;;;;;;;;10507634;28;20581;-84
2023/10/05 07:10:20;;;;;;;9.00;4.80;;;;;;;;;;10509712;28;20091;-83
2023/10/05 07:15:22;;;;;;;14.38;4.82;;;;;;;;;;10511221;28;20031;-88
2023/10/05 07:20:22;;;;;;;11.88;5.45;;;;;;;;;;10512373;28;20073;-86
2023/10/05 07:25:23;;;;;;;12.80;5.47;;;;;;;;;;10509398;28;20109;-80
2023/10/05 07:30:23;;;;;;;12.45;4.50;;;;;;;;;;10511310;28;20040;-84
2023/10/05 07:35:25;;;;;;;20.95;6.93;;;;;;;;;;10519445;28;20044;-87
2023/10/05 07:40:25;;;;;;;12.65;4.40;;;;;;;;;;10513447;28;20021;-81
2023/10/05 07:45:26;;;;;;;19.70;4.80;;;;;;;;;;10505010;28;20480;-88
2023/10/05 07:50:27;;;;;;;12.20;5.03;;;;;;;;;;10474156;28;20311;-79
2023/10/05 07:55:27;;;;;;;10.07;4.35;;;;;;;;;;10485799;28;20024;-80
2023/10/05 08:00:28;;;;;;;24.00;4.60;;;;;;;;;;10494686;28;20112;-84
2023/10/05 08:05:29;;;;;;;16.23;5.30;;;;;;;;;;10495997;28;20027;-81
2023/10/05 08:10:31;;;;;;;12.25;4.85;;;;;;;;;;10502140;28;20043;-88
2023/10/05 08:15:33;;;;;;;16.33;3.80;;;;;;;;;;10494011;28;20013;-80
2023/10/05 08:20:34;;;;;;;11.00;4.18;;;;;;;;;;10478304;28;20088;-84
2023/10/05 08:25:34;;;;;;;22.25;5.13;;;;;;;;;;10479795;28;20581;-88
2023/10/05 08:30:45;;;;;;;19.25;4.93;;;;;;;;;;10498676;28;20117;-80
2023/10/05 08:35:46;;;;;;;10.70;4.80;;;;;;;;;;10491457;28;20040;-79
2023/10/05 08:40:48;;;;;;;12.85;4.95;;;;;;;;;;10495091;28;20040;-80
2023/10/05 08:45:53;;;;;;;775.20;708.08;;;;;;;;;;10492469;28;20016;-85
2023/10/05 08:50:54;;;;;;;17.13;4.68;;;;;;;;;;10492611;28;20035;-81
2023/10/05 08:55:55;;;;;;;12.55;4.55;;;;;;;;;;10491371;28;20020;-78
2023/10/05 09:01:03;;;;;;;14.68;4.72;;;;;;;;;;10490046;28;20020;-84
2023/10/05 09:06:20;;;;;;;14.60;4.90;;;;;;;;;;10493541;28;20020;-79
2023/10/05 09:11:34;;;;;;;16.15;5.85;;;;;;;;;;10489863;28;20095;-82
2023/10/05 09:16:41;;;;;;;10.02;4.65;;;;;;;;;;10490034;28;20024;-85
2023/10/05 09:21:44;;;;;;;25.98;6.80;;;;;;;;;;10489419;28;20024;-82
2023/10/05 09:26:49;;;;;;;8.55;4.85;;;;;;;;;;10498629;28;20039;-84
2023/10/05 09:31:53;;;;;;;13.20;4.78;;;;;;;;;;10495346;28;20095;-82
2023/10/05 09:36:54;;;;;;;17.88;5.70;;;;;;;;;;10492383;28;20041;-83
2023/10/05 09:41:56;;;;;;;17.40;4.90;;;;;;;;;;10488383;28;20078;-80
2023/10/05 09:46:59;;;;;;;15.48;5.80;;;;;;;;;;10471268;28;20025;-82
2023/10/05 09:52:00;;;;;;;21.63;5.75;;;;;;;;;;10487738;28;20039;-80
2023/10/05 09:57:10;;;;;;;12.20;5.72;;;;;;;;;;10489166;28;20028;-81
2023/10/05 10:02:12;;;;;;;19.67;5.03;;;;;;;;;;10489126;28;20040;-83
2023/10/05 10:07:22;;;;;;;17.10;5.10;;;;;;;;;;10488419;28;20530;-84
2023/10/05 10:12:31;;;;;;;23.60;5.22;;;;;;;;;;10486070;28;20057;-81
2023/10/05 10:17:35;;;;;;;16.20;4.60;;;;;;;;;;10446975;28;20568;-88
2023/10/05 10:22:50;;;;;;;19.27;4.32;;;;;;;;;;10489492;28;20078;-89
2023/10/05 10:28:09;;;;;;;9.13;4.77;;;;;;;;;;10487248;28;20044;-81
2023/10/05 10:33:35;;;;;;;12.63;4.40;;;;;;;;;;10493002;28;20065;-85
2023/10/05 10:38:35;;;;;;;12.02;4.43;;;;;;;;;;10486260;28;20032;-83
2023/10/05 10:43:37;;;;;;;9.80;4.07;;;;;;;;;;10486708;28;20031;-83
2023/10/05 10:48:53;;;;;;;12.93;4.25;;;;;;;;;;10487609;28;20451;-80
2023/10/05 10:54:01;;;;;;;23.23;19.27;;;;;;;;;;10486055;28;20529;-79
2023/10/05 10:59:10;;;;;;;19.58;4.55;;;;;;;;;;10469065;28;20025;-79
2023/10/05 11:04:28;;;;;;;11.48;4.57;;;;;;;;;;10487431;28;20013;-85
2023/10/05 11:09:35;;;;;;;11.15;4.70;;;;;;;;;;10486551;28;20028;-78
2023/10/05 11:14:36;;;;;;;12.55;4.30;;;;;;;;;;10486335;28;20088;-79
2023/10/05 11:19:38;;;;;;;10.25;4.30;;;;;;;;;;10485593;28;20465;-83
2023/10/05 11:24:57;;;;;;;10.90;4.63;;;;;;;;;;10485429;28;20401;-84
2023/10/05 11:29:59;;;;;;;14.13;4.72;;;;;;;;;;10488381;28;20357;-79
2023/10/05 11:35:13;;;;;;;10.68;4.40;;;;;;;;;;10503255;28;20202;-82
2023/10/05 11:40:20;;;;;;;11.25;5.43;;;;;;;;;;10495763;28;20021;-83
2023/10/05 11:45:21;;;;;;;17.92;5.55;;;;;;;;;;10489515;28;20055;-80
2023/10/05 11:50:25;;;;;;;11.23;4.90;;;;;;;;;;10486037;28;20035;-78
2023/10/05 11:55:30;;;;;;;11.73;5.28;;;;;;;;;;10454655;28;20021;-84
2023/10/05 12:00:34;;;;;;;15.02;5.63;;;;;;;;;;10479789;28;20028;-85
2023/10/05 12:05:38;;;;;;;18.73;5.78;;;;;;;;;;10494448;28;20024;-81
2023/10/05 12:10:39;;;;;;;93.70;84.55;;;;;;;;;;10491808;28;20040;-85
2023/10/05 12:15:39;;;;;;;565.63;516.22;;;;;;;;;;10492942;28;20103;-80
2023/10/05 12:20:41;;;;;;;827.97;755.58;;;;;;;;;;10492764;28;20488;-85
2023/10/05 12:25:42;;;;;;;16.40;6.07;;;;;;;;;;10485911;28;20021;-81
2023/10/05 12:30:48;;;;;;;13.73;6.05;;;;;;;;;;10484147;28;20040;-86
2023/10/05 12:35:52;;;;;;;21.27;5.50;;;;;;;;;;10471755;28;20127;-77
2023/10/05 12:40:54;;;;;;;14.38;5.45;;;;;;;;;;10469027;28;20115;-80
2023/10/05 12:45:56;;;;;;;21.42;12.40;;;;;;;;;;10490645;28;20025;-79
2023/10/05 12:50:56;;;;;;;19.38;15.88;;;;;;;;;;10490993;28;20068;-83
2023/10/05 12:55:57;;;;;;;14.98;5.75;;;;;;;;;;10491923;28;20048;-81
2023/10/05 13:01:07;;;;;;;23.77;8.27;;;;;;;;;;10484282;28;20020;-84
2023/10/05 13:06:10;;;;;;;10.40;5.30;;;;;;;;;;10487981;28;20060;-84
2023/10/05 13:11:14;;;;;;;18.60;6.95;;;;;;;;;;10474003;28;20189;-80
2023/10/05 13:16:14;;;;;;;14.95;6.05;;;;;;;;;;10485160;28;20020;-85
2023/10/05 13:21:15;;;;;;;19.23;5.47;;;;;;;;;;10479669;28;20028;-81
2023/10/05 13:26:18;;;;;;;12.73;5.70;;;;;;;;;;10477507;28;20043;-81
2023/10/05 13:31:20;;;;;;;18.08;5.90;;;;;;;;;;10475021;28;20403;-85
2023/10/05 13:36:21;;;;;;;12.55;6.13;;;;;;;;;;10480140;28;20048;-89
2023/10/05 13:41:22;;;;;;;113.45;104.93;;;;;;;;;;10466530;28;20021;-82
2023/10/05 13:46:23;;;;;;;20.05;6.97;;;;;;;;;;10476308;28;20027;-87
2023/10/05 13:51:24;;;;;;;12.30;6.80;;;;;;;;;;10461687;28;20036;-81
2023/10/05 13:56:31;;;;;;;254.07;235.65;;;;;;;;;;10484067;28;20028;-90
2023/10/05 14:01:37;;;;;;;412.77;380.30;;;;;;;;;;10472471;28;20043;-89
2023/10/05 14:06:39;;;;;;;304.73;281.67;;;;;;;;;;10471159;28;20498;-85
2023/10/05 14:11:41;;;;;;;384.73;354.20;;;;;;;;;;10474976;28;20389;-83
2023/10/05 14:16:54;;;;;;;15.40;5.95;;;;;;;;;;10473871;28;20024;-88
2023/10/05 14:21:56;;;;;;;21.27;5.75;;;;;;;;;;10482566;28;20094;-85
2023/10/05 14:27:05;;;;;;;16.77;6.72;;;;;;;;;;10472120;28;20115;-78
2023/10/05 14:32:05;;;;;;;15.65;5.75;;;;;;;;;;10483261;28;20234;-84
2023/10/05 14:37:07;;;;;;;18.60;5.35;;;;;;;;;;10458515;28;20055;-84
2023/10/05 14:42:09;;;;;;;24.52;6.80;;;;;;;;;;10473512;28;20083;-82
2023/10/05 14:47:13;;;;;;;333.85;307.45;;;;;;;;;;10480761;28;20040;-79
2023/10/05 14:52:14;;;;;;;19.88;7.55;;;;;;;;;;10459775;28;20094;-88
2023/10/05 14:57:14;;;;;;;469.00;432.10;;;;;;;;;;10473289;28;20464;-80
2023/10/05 15:02:17;;;;;;;20.80;8.35;;;;;;;;;;10480493;28;20055;-86
2023/10/05 15:07:30;;;;;;;22.77;8.02;;;;;;;;;;10474253;28;20108;-89
2023/10/05 15:12:31;;;;;;;12.18;6.65;;;;;;;;;;10483370;28;20028;-83
2023/10/05 15:17:31;;;;;;;18.83;6.75;;;;;;;;;;10481159;28;20033;-83
2023/10/05 15:22:31;;;;;;;15.83;7.03;;;;;;;;;;10476982;28;20121;-82
2023/10/05 15:27:33;;;;;;;108.72;99.95;;;;;;;;;;10510281;28;20427;-84
2023/10/05 15:32:36;;;;;;;898.92;821.70;;;;;;;;;;10498780;28;20470;-83
2023/10/05 15:37:37;;;;;;;16.13;7.22;;;;;;;;;;10492141;28;20021;-88
2023/10/05 15:42:39;;;;;;;18.85;7.25;;;;;;;;;;10483929;28;20028;-84
2023/10/05 15:47:43;;;;;;;21.65;7.13;;;;;;;;;;10506443;28;20085;-86
2023/10/05 15:52:44;;;;;;;14.52;6.30;;;;;;;;;;10486849;28;20030;-83
2023/10/05 15:57:47;;;;;;;23.23;7.78;;;;;;;;;;10480023;28;20511;-86
2023/10/05 16:02:49;;;;;;;22.67;8.15;;;;;;;;;;10480596;28;20032;-85
2023/10/05 16:07:50;;;;;;;20.33;7.28;;;;;;;;;;10484071;28;20028;-85
2023/10/05 16:12:53;;;;;;;24.00;6.88;;;;;;;;;;10479721;28;20096;-86
2023/10/05 16:17:53;;;;;;;20.63;7.57;;;;;;;;;;10477854;28;20028;-83
2023/10/05 16:23:04;;;;;;;19.20;8.35;;;;;;;;;;10462072;28;20033;-84
2023/10/05 16:28:07;;;;;;;15.80;7.60;;;;;;;;;;10470851;28;20048;-86
2023/10/05 16:33:09;;;;;;;27.40;8.15;;;;;;;;;;10471374;28;20600;-80
2023/10/05 16:38:10;;;;;;;25.83;7.95;;;;;;;;;;10468959;28;20474;-84
2023/10/05 16:43:12;;;;;;;21.00;6.20;;;;;;;;;;10465756;28;20033;-79
2023/10/05 16:48:12;;;;;;;11.30;5.97;;;;;;;;;;10453333;28;20702;-79
2023/10/05 16:53:13;;;;;;;17.53;6.37;;;;;;;;;;10462712;28;20028;-83
2023/10/05 16:58:13;;;;;;;13.87;5.97;;;;;;;;;;10483465;28;20036;-80
2023/10/05 17:03:15;;;;;;;24.40;8.30;;;;;;;;;;10498058;28;20117;-90
2023/10/05 17:08:20;;;;;;;22.65;6.68;;;;;;;;;;10505771;28;20058;-79
2023/10/05 17:13:21;;;;;;;29.27;7.95;;;;;;;;;;10499708;28;20753;-84
2023/10/05 17:18:22;;;;;;;20.17;6.75;;;;;;;;;;10506859;28;20048;-82
2023/10/05 17:23:24;;;;;;;23.40;6.85;;;;;;;;;;10517252;28;20028;-79
2023/10/05 17:28:27;;;;;;;14.23;7.30;;;;;;;;;;10471749;28;20021;-81
2023/10/05 17:33:28;;;;;;;14.48;6.80;;;;;;;;;;10464164;28;20049;-86
2023/10/05 17:38:29;;;;;;;19.10;7.90;;;;;;;;;;10474694;28;20405;-75
2023/10/05 17:43:30;;;;;;;18.90;6.72;;;;;;;;;;10462965;28;20040;-82
2023/10/05 17:48:31;;;;;;;16.90;7.70;;;;;;;;;;10466746;28;20412;-78
2023/10/05 17:53:31;;;;;;;16.25;7.90;;;;;;;;;;10468999;28;20027;-80
2023/10/05 17:58:31;;;;;;;19.90;8.15;;;;;;;;;;10478332;28;20021;-77
2023/10/05 18:03:31;;;;;;;23.45;7.88;;;;;;;;;;10477913;28;20031;-76
2023/10/05 18:08:32;;;;;;;17.38;8.02;;;;;;;;;;10464671;28;20048;-76
2023/10/05 18:13:33;;;;;;;30.85;8.90;;;;;;;;;;10461504;28;20552;-82
2023/10/05 18:18:35;;;;;;;29.65;12.43;;;;;;;;;;10465974;28;20112;-77
2023/10/05 18:23:37;;;;;;;17.17;7.00;;;;;;;;;;10480059;28;20024;-77
2023/10/05 18:28:40;;;;;;;24.15;9.07;;;;;;;;;;10460493;28;20059;-79
2023/10/05 18:33:42;;;;;;;20.10;8.70;;;;;;;;;;10483084;28;20065;-80
2023/10/05 18:38:42;;;;;;;26.92;9.52;;;;;;;;;;10464671;28;20086;-79
2023/10/05 18:43:43;;;;;;;16.87;7.50;;;;;;;;;;10466797;28;20025;-78
2023/10/05 18:48:45;;;;;;;19.52;8.18;;;;;;;;;;10475266;28;20048;-81
2023/10/05 18:53:47;;;;;;;20.02;8.80;;;;;;;;;;10482717;28;20028;-81
2023/10/05 18:58:48;;;;;;;55.00;50.83;;;;;;;;;;10485827;28;20044;-83
2023/10/05 19:03:51;;;;;;;122.88;114.55;;;;;;;;;;10444918;28;20028;-83
2023/10/05 19:08:51;;;;;;;973.90;898.63;;;;;;;;;;10476700;28;20021;-78
2023/10/05 19:13:52;;;;;;;28.77;7.30;;;;;;;;;;10443815;28;20021;-80
2023/10/05 19:18:53;;;;;;;17.25;7.57;;;;;;;;;;10452214;28;20040;-78
2023/10/05 19:23:53;;;;;;;22.95;17.77;;;;;;;;;;10452518;28;20119;-79
2023/10/05 19:28:53;;;;;;;26.88;19.52;;;;;;;;;;10449107;28;20025;-76
2023/10/05 19:33:54;;;;;;;15.25;7.57;;;;;;;;;;10455900;28;20101;-80
2023/10/05 19:38:56;;;;;;;16.20;7.40;;;;;;;;;;10450984;28;20056;-83
2023/10/05 19:43:56;;;;;;;17.65;14.05;;;;;;;;;;10452033;28;20319;-77
2023/10/05 19:48:57;;;;;;;940.42;867.50;;;;;;;;;;10455241;28;20471;-80
2023/10/05 19:53:57;;;;;;;14.55;7.13;;;;;;;;;;10457355;28;20013;-77
2023/10/05 19:58:58;;;;;;;11.82;6.55;;;;;;;;;;10459873;28;20021;-80
2023/10/05 20:04:00;;;;;;;16.20;8.82;;;;;;;;;;10477057;28;20013;-80
2023/10/05 20:09:01;;;;;;;20.33;8.27;;;;;;;;;;10450438;28;20071;-81
2023/10/05 20:14:07;;;;;;;20.07;12.73;;;;;;;;;;10463864;28;20108;-77
2023/10/05 20:19:10;;;;;;;22.50;6.60;;;;;;;;;;10453423;28;20302;-84
2023/10/05 20:24:17;;;;;;;19.73;6.85;;;;;;;;;;10452705;28;20025;-76
2023/10/05 20:29:19;;;;;;;21.33;7.55;;;;;;;;;;10482957;28;20085;-79
2023/10/05 20:34:19;;;;;;;17.52;6.68;;;;;;;;;;10450647;28;20041;-80
2023/10/05 20:39:21;;;;;;;16.00;7.50;;;;;;;;;;10483846;28;20122;-79
2023/10/05 20:44:26;;;;;;;17.17;6.75;;;;;;;;;;10491894;28;20028;-81
2023/10/05 20:49:33;;;;;;;10.35;5.82;;;;;;;;;;10492053;28;20025;-75
2023/10/05 20:54:33;;;;;;;75.65;70.20;;;;;;;;;;10491499;28;20071;-76
2023/10/05 20:59:34;;;;;;;13.45;6.80;;;;;;;;;;10492475;28;20056;-75
2023/10/05 21:04:35;;;;;;;108.18;101.38;;;;;;;;;;10490634;28;20458;-81
2023/10/05 21:09:36;;;;;;;16.15;7.60;;;;;;;;;;10462730;28;20408;-75
2023/10/05 21:14:36;;;;;;;18.13;9.27;;;;;;;;;;10475294;28;20032;-78
2023/10/05 21:19:39;;;;;;;15.87;8.10;;;;;;;;;;10491170;28;20488;-78
2023/10/05 21:24:39;;;;;;;17.58;7.60;;;;;;;;;;10491408;28;20797;-76
2023/10/05 21:29:40;;;;;;;17.55;7.78;;;;;;;;;;10491302;28;20028;-78
2023/10/05 21:34:40;;;;;;;18.40;7.70;;;;;;;;;;10489776;28;20041;-78
2023/10/05 21:39:43;;;;;;;21.33;9.07;;;;;;;;;;10490153;28;20043;-79
2023/10/05 21:44:44;;;;;;;21.10;9.40;;;;;;;;;;10491547;28;20032;-82
2023/10/05 21:49:44;;;;;;;19.85;9.60;;;;;;;;;;10489959;28;20488;-78
2023/10/05 21:54:44;;;;;;;24.97;9.93;;;;;;;;;;10490178;28;20031;-77
2023/10/05 21:59:45;;;;;;;120.75;112.70;;;;;;;;;;10488791;28;20445;-73
2023/10/05 22:04:47;;;;;;;274.73;256.37;;;;;;;;;;10489839;28;20050;-76
2023/10/05 22:09:48;;;;;;;838.65;773.63;;;;;;;;;;10470976;28;20055;-77
2023/10/05 22:14:48;;;;;;;22.23;8.10;;;;;;;;;;10488024;28;20443;-77
2023/10/05 22:19:49;;;;;;;16.23;8.13;;;;;;;;;;10469863;28;20412;-76
2023/10/05 22:24:50;;;;;;;15.18;7.85;;;;;;;;;;10452712;28;20016;-81
2023/10/05 22:29:50;;;;;;;17.80;8.25;;;;;;;;;;10473828;28;20307;-77
2023/10/05 22:34:51;;;;;;;19.75;9.63;;;;;;;;;;10504418;28;20068;-79
2023/10/05 22:39:51;;;;;;;20.73;9.10;;;;;;;;;;10487726;28;20020;-80
2023/10/05 22:44:52;;;;;;;22.58;9.02;;;;;;;;;;10488847;28;20097;-78
2023/10/05 22:49:52;;;;;;;139.05;129.48;;;;;;;;;;10487776;28;20032;-79
2023/10/05 22:54:55;;;;;;;927.45;851.20;;;;;;;;;;10488751;28;20403;-78
2023/10/05 22:59:56;;;;;;;20.58;9.05;;;;;;;;;;10487201;28;20052;-81
2023/10/05 23:04:56;;;;;;;18.40;9.60;;;;;;;;;;10487547;28;20005;-77
2023/10/05 23:09:58;;;;;;;22.07;9.00;;;;;;;;;;10478368;28;20515;-81
2023/10/05 23:15:00;;;;;;;19.25;9.05;;;;;;;;;;10461685;28;20258;-81
2023/10/05 23:20:11;;;;;;;20.65;8.07;;;;;;;;;;10487214;28;20043;-79
2023/10/05 23:25:17;;;;;;;25.38;9.82;;;;;;;;;;10485439;28;20024;-75
2023/10/05 23:30:18;;;;;;;17.40;9.70;;;;;;;;;;10486379;28;20028;-79
2023/10/05 23:35:20;;;;;;;22.70;9.52;;;;;;;;;;10485773;28;20455;-78
2023/10/05 23:40:26;;;;;;;27.10;9.18;;;;;;;;;;10486795;28;20066;-76
2023/10/05 23:45:26;;;;;;;19.30;9.07;;;;;;;;;;10485661;28;20025;-75
2023/10/05 23:50:36;;;;;;;16.03;9.77;;;;;;;;;;10485706;28;20032;-80
2023/10/05 23:55:43;;;;;;;34.75;10.68;;;;;;;;;;10488039;28;20300;-81
